sensor_id;sensor_type;location;lat;lon;timestamp;temperature;humidity
23079;DHT22;11707;50.830;4.364;2022-08-21T00:02:23;18.30;99.90
23079;DHT22;11707;50.830;4.364;2022-08-21T00:04:50;18.20;99.90
23079;DHT22;11707;50.830;4.364;2022-08-21T00:07:17;18.10;99.90
23079;DHT22;11707;50.830;4.364;2022-08-21T00:09:43;18.00;99.90
23079;DHT22;11707;50.830;4.364;2022-08-21T00:12:09;18.00;99.90
23079;DHT22;11707;50.830;4.364;2022-08-21T00:14:35;18.00;99.90
23079;DHT22;11707;50.830;4.364;2022-08-21T00:17:03;17.90;99.90
23079;DHT22;11707;50.830;4.364;2022-08-21T00:19:29;17.80;99.90
23079;DHT22;11707;50.830;4.364;2022-08-21T00:21:55;17.80;99.90
23079;DHT22;11707;50.830;4.364;2022-08-21T00:24:22;17.70;99.90
23079;DHT22;11707;50.830;4.364;2022-08-21T00:26:49;17.70;99.90
23079;DHT22;11707;50.830;4.364;2022-08-21T00:29:15;17.70;99.90
23079;DHT22;11707;50.830;4.364;2022-08-21T00:31:42;17.60;99.90
23079;DHT22;11707;50.830;4.364;2022-08-21T00:34:09;17.60;99.90
23079;DHT22;11707;50.830;4.364;2022-08-21T00:36:36;17.60;99.90
23079;DHT22;11707;50.830;4.364;2022-08-21T00:39:04;17.70;99.90
23079;DHT22;11707;50.830;4.364;2022-08-21T00:41:30;17.50;99.90
23079;DHT22;11707;50.830;4.364;2022-08-21T00:43:56;17.60;99.90
23079;DHT22;11707;50.830;4.364;2022-08-21T00:46:22;17.60;99.90
23079;DHT22;11707;50.830;4.364;2022-08-21T00:48:47;17.60;99.90
23079;DHT22;11707;50.830;4.364;2022-08-21T00:51:24;17.40;99.90
23079;DHT22;11707;50.830;4.364;2022-08-21T00:53:57;17.30;99.90
23079;DHT22;11707;50.830;4.364;2022-08-21T00:56:24;17.30;99.90
23079;DHT22;11707;50.830;4.364;2022-08-21T00:58:52;17.40;99.90
23079;DHT22;11707;50.830;4.364;2022-08-21T01:01:18;17.40;99.90
23079;DHT22;11707;50.830;4.364;2022-08-21T01:03:45;17.30;99.90
23079;DHT22;11707;50.830;4.364;2022-08-21T01:06:11;17.30;99.90
23079;DHT22;11707;50.830;4.364;2022-08-21T01:08:37;17.30;99.90
23079;DHT22;11707;50.830;4.364;2022-08-21T01:11:04;17.20;99.90
23079;DHT22;11707;50.830;4.364;2022-08-21T01:13:33;17.30;99.90
23079;DHT22;11707;50.830;4.364;2022-08-21T01:16:02;17.40;99.90
23079;DHT22;11707;50.830;4.364;2022-08-21T01:18:29;17.50;99.90
23079;DHT22;11707;50.830;4.364;2022-08-21T01:21:17;17.40;99.90
23079;DHT22;11707;50.830;4.364;2022-08-21T01:23:46;17.50;99.90
23079;DHT22;11707;50.830;4.364;2022-08-21T01:26:13;17.50;99.90
23079;DHT22;11707;50.830;4.364;2022-08-21T01:28:45;17.40;99.90
23079;DHT22;11707;50.830;4.364;2022-08-21T01:31:13;17.50;99.90
23079;DHT22;11707;50.830;4.364;2022-08-21T01:33:40;17.60;99.90
23079;DHT22;11707;50.830;4.364;2022-08-21T01:36:06;17.80;99.90
23079;DHT22;11707;50.830;4.364;2022-08-21T01:38:32;17.90;99.90
23079;DHT22;11707;50.830;4.364;2022-08-21T01:40:58;17.90;99.90
23079;DHT22;11707;50.830;4.364;2022-08-21T01:43:24;18.00;99.90
23079;DHT22;11707;50.830;4.364;2022-08-21T01:45:49;17.90;99.90
23079;DHT22;11707;50.830;4.364;2022-08-21T01:48:15;18.00;99.90
23079;DHT22;11707;50.830;4.364;2022-08-21T01:50:41;17.90;99.90
23079;DHT22;11707;50.830;4.364;2022-08-21T01:53:07;17.80;99.90
23079;DHT22;11707;50.830;4.364;2022-08-21T01:55:32;17.80;99.90
23079;DHT22;11707;50.830;4.364;2022-08-21T01:57:59;17.70;99.90
23079;DHT22;11707;50.830;4.364;2022-08-21T02:00:25;17.80;99.90
23079;DHT22;11707;50.830;4.364;2022-08-21T02:02:51;17.70;99.90
23079;DHT22;11707;50.830;4.364;2022-08-21T02:05:18;17.70;99.90
23079;DHT22;11707;50.830;4.364;2022-08-21T02:07:47;17.60;99.90
23079;DHT22;11707;50.830;4.364;2022-08-21T02:10:18;17.60;99.90
23079;DHT22;11707;50.830;4.364;2022-08-21T02:12:44;17.60;99.90
23079;DHT22;11707;50.830;4.364;2022-08-21T02:15:10;17.70;99.90
23079;DHT22;11707;50.830;4.364;2022-08-21T02:18:17;17.80;99.90
23079;DHT22;11707;50.830;4.364;2022-08-21T02:20:45;17.90;99.90
23079;DHT22;11707;50.830;4.364;2022-08-21T02:23:12;17.90;99.90
23079;DHT22;11707;50.830;4.364;2022-08-21T02:25:39;17.90;99.90
23079;DHT22;11707;50.830;4.364;2022-08-21T02:28:08;17.80;99.90
23079;DHT22;11707;50.830;4.364;2022-08-21T02:30:37;17.70;99.90
23079;DHT22;11707;50.830;4.364;2022-08-21T02:33:06;17.60;99.90
23079;DHT22;11707;50.830;4.364;2022-08-21T02:35:32;17.60;99.90
23079;DHT22;11707;50.830;4.364;2022-08-21T02:38:06;17.60;99.90
23079;DHT22;11707;50.830;4.364;2022-08-21T02:40:37;17.70;99.90
23079;DHT22;11707;50.830;4.364;2022-08-21T02:43:05;17.80;99.90
23079;DHT22;11707;50.830;4.364;2022-08-21T02:45:32;17.80;99.90
23079;DHT22;11707;50.830;4.364;2022-08-21T02:48:04;17.70;99.90
23079;DHT22;11707;50.830;4.364;2022-08-21T02:50:40;17.70;99.90
23079;DHT22;11707;50.830;4.364;2022-08-21T02:53:08;17.70;99.90
23079;DHT22;11707;50.830;4.364;2022-08-21T02:55:36;17.70;99.90
23079;DHT22;11707;50.830;4.364;2022-08-21T02:58:04;17.60;99.90
23079;DHT22;11707;50.830;4.364;2022-08-21T03:00:31;17.60;99.90
23079;DHT22;11707;50.830;4.364;2022-08-21T03:02:58;17.70;99.90
23079;DHT22;11707;50.830;4.364;2022-08-21T03:05:26;17.50;99.90
23079;DHT22;11707;50.830;4.364;2022-08-21T03:07:52;17.20;99.90
23079;DHT22;11707;50.830;4.364;2022-08-21T03:10:21;16.90;99.90
23079;DHT22;11707;50.830;4.364;2022-08-21T03:12:47;16.80;99.90
23079;DHT22;11707;50.830;4.364;2022-08-21T03:15:17;16.80;99.90
23079;DHT22;11707;50.830;4.364;2022-08-21T03:17:43;16.70;99.90
23079;DHT22;11707;50.830;4.364;2022-08-21T03:20:10;16.60;99.90
23079;DHT22;11707;50.830;4.364;2022-08-21T03:22:36;16.70;99.90
23079;DHT22;11707;50.830;4.364;2022-08-21T03:25:03;16.60;99.90
23079;DHT22;11707;50.830;4.364;2022-08-21T03:27:29;16.60;99.90
23079;DHT22;11707;50.830;4.364;2022-08-21T03:29:56;16.60;99.90
23079;DHT22;11707;50.830;4.364;2022-08-21T03:32:22;16.80;99.90
23079;DHT22;11707;50.830;4.364;2022-08-21T03:34:48;16.90;99.90
23079;DHT22;11707;50.830;4.364;2022-08-21T03:37:14;17.00;99.90
23079;DHT22;11707;50.830;4.364;2022-08-21T03:39:40;17.00;99.90
23079;DHT22;11707;50.830;4.364;2022-08-21T03:42:07;17.20;99.90
23079;DHT22;11707;50.830;4.364;2022-08-21T03:44:33;17.10;99.90
23079;DHT22;11707;50.830;4.364;2022-08-21T03:47:00;17.20;99.90
23079;DHT22;11707;50.830;4.364;2022-08-21T03:49:26;17.30;99.90
23079;DHT22;11707;50.830;4.364;2022-08-21T03:51:52;17.30;99.90
23079;DHT22;11707;50.830;4.364;2022-08-21T03:54:18;17.20;99.90
23079;DHT22;11707;50.830;4.364;2022-08-21T03:56:44;17.10;99.90
23079;DHT22;11707;50.830;4.364;2022-08-21T03:59:09;17.10;99.90
23079;DHT22;11707;50.830;4.364;2022-08-21T04:01:35;17.10;99.90
23079;DHT22;11707;50.830;4.364;2022-08-21T04:04:02;17.10;99.90
23079;DHT22;11707;50.830;4.364;2022-08-21T04:06:28;17.10;99.90
23079;DHT22;11707;50.830;4.364;2022-08-21T04:08:54;17.10;99.90
23079;DHT22;11707;50.830;4.364;2022-08-21T04:11:20;17.10;99.90
23079;DHT22;11707;50.830;4.364;2022-08-21T04:13:46;17.10;99.90
23079;DHT22;11707;50.830;4.364;2022-08-21T04:16:15;17.00;99.90
23079;DHT22;11707;50.830;4.364;2022-08-21T04:18:40;17.00;99.90
23079;DHT22;11707;50.830;4.364;2022-08-21T04:21:08;16.90;99.90
23079;DHT22;11707;50.830;4.364;2022-08-21T04:23:36;16.90;99.90
23079;DHT22;11707;50.830;4.364;2022-08-21T04:26:01;16.90;99.90
23079;DHT22;11707;50.830;4.364;2022-08-21T04:28:27;16.70;99.90
23079;DHT22;11707;50.830;4.364;2022-08-21T04:30:53;16.60;99.90
23079;DHT22;11707;50.830;4.364;2022-08-21T04:33:20;16.50;99.90
23079;DHT22;11707;50.830;4.364;2022-08-21T04:35:46;16.50;99.90
23079;DHT22;11707;50.830;4.364;2022-08-21T04:38:12;16.50;99.90
23079;DHT22;11707;50.830;4.364;2022-08-21T04:40:38;16.50;99.90
23079;DHT22;11707;50.830;4.364;2022-08-21T04:43:07;16.50;99.90
23079;DHT22;11707;50.830;4.364;2022-08-21T04:45:36;16.60;99.90
23079;DHT22;11707;50.830;4.364;2022-08-21T04:48:05;16.60;99.90
23079;DHT22;11707;50.830;4.364;2022-08-21T04:50:38;16.60;99.90
23079;DHT22;11707;50.830;4.364;2022-08-21T04:53:12;16.60;99.90
23079;DHT22;11707;50.830;4.364;2022-08-21T04:55:40;16.50;99.90
23079;DHT22;11707;50.830;4.364;2022-08-21T04:58:08;16.60;99.90
23079;DHT22;11707;50.830;4.364;2022-08-21T05:00:36;16.50;99.90
23079;DHT22;11707;50.830;4.364;2022-08-21T05:03:04;16.50;99.90
23079;DHT22;11707;50.830;4.364;2022-08-21T05:05:30;16.30;99.90
23079;DHT22;11707;50.830;4.364;2022-08-21T05:07:57;16.30;99.90
23079;DHT22;11707;50.830;4.364;2022-08-21T05:10:24;16.40;99.90
23079;DHT22;11707;50.830;4.364;2022-08-21T05:12:51;16.60;99.90
23079;DHT22;11707;50.830;4.364;2022-08-21T05:15:16;16.70;99.90
23079;DHT22;11707;50.830;4.364;2022-08-21T05:17:43;16.90;99.90
23079;DHT22;11707;50.830;4.364;2022-08-21T05:20:10;17.00;99.90
23079;DHT22;11707;50.830;4.364;2022-08-21T05:22:36;17.00;99.90
23079;DHT22;11707;50.830;4.364;2022-08-21T05:25:03;16.90;99.90
23079;DHT22;11707;50.830;4.364;2022-08-21T05:27:29;16.80;99.90
23079;DHT22;11707;50.830;4.364;2022-08-21T05:29:56;16.80;99.90
23079;DHT22;11707;50.830;4.364;2022-08-21T05:32:22;16.80;99.90
23079;DHT22;11707;50.830;4.364;2022-08-21T05:34:48;16.70;99.90
23079;DHT22;11707;50.830;4.364;2022-08-21T05:37:14;16.80;99.90
23079;DHT22;11707;50.830;4.364;2022-08-21T05:39:40;16.90;99.90
23079;DHT22;11707;50.830;4.364;2022-08-21T05:42:06;16.90;99.90
23079;DHT22;11707;50.830;4.364;2022-08-21T05:44:31;16.90;99.90
23079;DHT22;11707;50.830;4.364;2022-08-21T05:47:08;16.90;99.90
23079;DHT22;11707;50.830;4.364;2022-08-21T05:49:35;16.90;99.90
23079;DHT22;11707;50.830;4.364;2022-08-21T05:52:02;16.90;99.90
23079;DHT22;11707;50.830;4.364;2022-08-21T05:54:28;17.00;99.90
23079;DHT22;11707;50.830;4.364;2022-08-21T05:56:54;17.00;99.90
23079;DHT22;11707;50.830;4.364;2022-08-21T05:59:20;17.20;99.90
23079;DHT22;11707;50.830;4.364;2022-08-21T06:01:46;17.20;99.90
23079;DHT22;11707;50.830;4.364;2022-08-21T06:04:12;17.30;99.90
23079;DHT22;11707;50.830;4.364;2022-08-21T06:06:37;17.40;99.90
23079;DHT22;11707;50.830;4.364;2022-08-21T06:09:04;17.40;99.90
23079;DHT22;11707;50.830;4.364;2022-08-21T06:11:30;17.40;99.90
23079;DHT22;11707;50.830;4.364;2022-08-21T06:13:57;17.50;99.90
23079;DHT22;11707;50.830;4.364;2022-08-21T06:16:23;17.50;99.90
23079;DHT22;11707;50.830;4.364;2022-08-21T06:18:49;17.50;99.90
23079;DHT22;11707;50.830;4.364;2022-08-21T06:21:14;17.30;99.90
23079;DHT22;11707;50.830;4.364;2022-08-21T06:23:41;17.00;99.90
23079;DHT22;11707;50.830;4.364;2022-08-21T06:26:08;17.10;99.90
23079;DHT22;11707;50.830;4.364;2022-08-21T06:28:34;17.00;99.90
23079;DHT22;11707;50.830;4.364;2022-08-21T06:31:00;16.80;99.90
23079;DHT22;11707;50.830;4.364;2022-08-21T06:33:26;16.80;99.90
23079;DHT22;11707;50.830;4.364;2022-08-21T06:35:52;16.90;99.90
23079;DHT22;11707;50.830;4.364;2022-08-21T06:38:17;17.10;99.90
23079;DHT22;11707;50.830;4.364;2022-08-21T06:40:43;17.40;99.90
23079;DHT22;11707;50.830;4.364;2022-08-21T06:43:12;17.40;99.90
23079;DHT22;11707;50.830;4.364;2022-08-21T06:45:39;17.10;99.90
23079;DHT22;11707;50.830;4.364;2022-08-21T06:48:05;17.30;99.90
23079;DHT22;11707;50.830;4.364;2022-08-21T06:50:33;17.40;99.90
23079;DHT22;11707;50.830;4.364;2022-08-21T06:53:11;17.50;99.90
23079;DHT22;11707;50.830;4.364;2022-08-21T06:55:38;17.50;99.90
23079;DHT22;11707;50.830;4.364;2022-08-21T06:58:04;17.50;99.90
23079;DHT22;11707;50.830;4.364;2022-08-21T07:00:31;17.50;99.90
23079;DHT22;11707;50.830;4.364;2022-08-21T07:02:57;17.60;99.90
23079;DHT22;11707;50.830;4.364;2022-08-21T07:05:26;17.80;99.90
23079;DHT22;11707;50.830;4.364;2022-08-21T07:07:52;17.90;99.90
23079;DHT22;11707;50.830;4.364;2022-08-21T07:10:18;18.00;99.90
23079;DHT22;11707;50.830;4.364;2022-08-21T07:12:43;18.00;99.90
23079;DHT22;11707;50.830;4.364;2022-08-21T07:15:10;18.20;99.90
23079;DHT22;11707;50.830;4.364;2022-08-21T07:17:36;18.30;99.90
23079;DHT22;11707;50.830;4.364;2022-08-21T07:20:03;18.30;99.90
23079;DHT22;11707;50.830;4.364;2022-08-21T07:22:29;18.40;99.90
23079;DHT22;11707;50.830;4.364;2022-08-21T07:24:55;18.20;99.90
23079;DHT22;11707;50.830;4.364;2022-08-21T07:27:21;18.20;99.90
23079;DHT22;11707;50.830;4.364;2022-08-21T07:29:46;18.20;99.90
23079;DHT22;11707;50.830;4.364;2022-08-21T07:32:12;18.10;99.90
23079;DHT22;11707;50.830;4.364;2022-08-21T07:34:40;18.20;99.90
23079;DHT22;11707;50.830;4.364;2022-08-21T07:37:06;18.30;99.90
23079;DHT22;11707;50.830;4.364;2022-08-21T07:39:31;18.40;99.90
23079;DHT22;11707;50.830;4.364;2022-08-21T07:41:57;18.60;99.90
23079;DHT22;11707;50.830;4.364;2022-08-21T07:44:23;18.50;99.90
23079;DHT22;11707;50.830;4.364;2022-08-21T07:46:48;18.40;99.90
23079;DHT22;11707;50.830;4.364;2022-08-21T07:49:14;18.40;99.90
23079;DHT22;11707;50.830;4.364;2022-08-21T07:51:40;18.40;99.90
23079;DHT22;11707;50.830;4.364;2022-08-21T07:54:05;18.40;99.90
23079;DHT22;11707;50.830;4.364;2022-08-21T07:56:32;18.40;99.90
23079;DHT22;11707;50.830;4.364;2022-08-21T07:58:57;18.40;99.90
23079;DHT22;11707;50.830;4.364;2022-08-21T08:01:24;18.60;99.90
23079;DHT22;11707;50.830;4.364;2022-08-21T08:03:50;18.70;99.90
23079;DHT22;11707;50.830;4.364;2022-08-21T08:06:16;18.80;99.90
23079;DHT22;11707;50.830;4.364;2022-08-21T08:08:44;18.80;99.90
23079;DHT22;11707;50.830;4.364;2022-08-21T08:11:10;18.90;99.90
23079;DHT22;11707;50.830;4.364;2022-08-21T08:13:42;19.00;99.90
23079;DHT22;11707;50.830;4.364;2022-08-21T08:16:08;19.10;99.90
23079;DHT22;11707;50.830;4.364;2022-08-21T08:18:34;19.20;99.90
23079;DHT22;11707;50.830;4.364;2022-08-21T08:21:00;19.10;99.90
23079;DHT22;11707;50.830;4.364;2022-08-21T08:23:25;19.10;99.90
23079;DHT22;11707;50.830;4.364;2022-08-21T08:25:52;19.10;99.90
23079;DHT22;11707;50.830;4.364;2022-08-21T08:28:18;18.90;99.90
23079;DHT22;11707;50.830;4.364;2022-08-21T08:30:47;18.90;99.90
23079;DHT22;11707;50.830;4.364;2022-08-21T08:33:15;18.90;99.90
23079;DHT22;11707;50.830;4.364;2022-08-21T08:35:42;19.00;99.90
23079;DHT22;11707;50.830;4.364;2022-08-21T08:38:10;19.10;99.90
23079;DHT22;11707;50.830;4.364;2022-08-21T08:41:09;19.10;99.90
23079;DHT22;11707;50.830;4.364;2022-08-21T08:43:33;19.30;99.90
23079;DHT22;11707;50.830;4.364;2022-08-21T08:46:03;19.40;99.90
23079;DHT22;11707;50.830;4.364;2022-08-21T08:51:16;20.10;99.90
23079;DHT22;11707;50.830;4.364;2022-08-21T08:54:01;20.20;99.90
23079;DHT22;11707;50.830;4.364;2022-08-21T08:56:33;20.50;99.90
23079;DHT22;11707;50.830;4.364;2022-08-21T08:59:12;20.40;99.90
23079;DHT22;11707;50.830;4.364;2022-08-21T09:01:39;20.30;99.90
23079;DHT22;11707;50.830;4.364;2022-08-21T09:04:05;20.30;99.90
23079;DHT22;11707;50.830;4.364;2022-08-21T09:06:43;20.50;99.90
23079;DHT22;11707;50.830;4.364;2022-08-21T09:09:22;20.70;99.90
23079;DHT22;11707;50.830;4.364;2022-08-21T09:12:07;20.50;99.90
23079;DHT22;11707;50.830;4.364;2022-08-21T09:14:50;20.40;99.90
23079;DHT22;11707;50.830;4.364;2022-08-21T09:25:59;20.30;99.90
23079;DHT22;11707;50.830;4.364;2022-08-21T09:28:31;20.60;99.90
23079;DHT22;11707;50.830;4.364;2022-08-21T09:30:58;20.80;99.90
23079;DHT22;11707;50.830;4.364;2022-08-21T09:33:28;20.80;99.90
23079;DHT22;11707;50.830;4.364;2022-08-21T09:35:55;20.80;99.90
23079;DHT22;11707;50.830;4.364;2022-08-21T09:38:29;20.90;99.90
23079;DHT22;11707;50.830;4.364;2022-08-21T09:41:05;21.30;99.90
23079;DHT22;11707;50.830;4.364;2022-08-21T09:43:33;21.60;99.90
23079;DHT22;11707;50.830;4.364;2022-08-21T09:46:22;21.60;99.90
23079;DHT22;11707;50.830;4.364;2022-08-21T09:48:51;21.70;99.90
23079;DHT22;11707;50.830;4.364;2022-08-21T09:51:21;21.70;99.90
23079;DHT22;11707;50.830;4.364;2022-08-21T09:56:37;21.50;99.90
23079;DHT22;11707;50.830;4.364;2022-08-21T09:59:32;21.80;99.90
23079;DHT22;11707;50.830;4.364;2022-08-21T10:02:03;21.70;99.90
23079;DHT22;11707;50.830;4.364;2022-08-21T10:04:35;21.60;99.90
23079;DHT22;11707;50.830;4.364;2022-08-21T10:07:12;21.50;99.90
23079;DHT22;11707;50.830;4.364;2022-08-21T10:09:39;21.50;99.90
23079;DHT22;11707;50.830;4.364;2022-08-21T10:12:17;21.40;99.90
23079;DHT22;11707;50.830;4.364;2022-08-21T10:17:17;21.70;99.90
23079;DHT22;11707;50.830;4.364;2022-08-21T10:20:45;22.10;99.90
23079;DHT22;11707;50.830;4.364;2022-08-21T10:26:03;22.60;99.90
23079;DHT22;11707;50.830;4.364;2022-08-21T10:31:09;22.50;99.90
23079;DHT22;11707;50.830;4.364;2022-08-21T10:36:26;22.20;99.90
23079;DHT22;11707;50.830;4.364;2022-08-21T10:42:12;22.50;99.90
23079;DHT22;11707;50.830;4.364;2022-08-21T10:44:49;22.80;99.90
23079;DHT22;11707;50.830;4.364;2022-08-21T10:47:27;22.90;99.90
23079;DHT22;11707;50.830;4.364;2022-08-21T10:52:39;22.60;99.90
23079;DHT22;11707;50.830;4.364;2022-08-21T10:55:18;22.80;99.90
23079;DHT22;11707;50.830;4.364;2022-08-21T11:00:19;23.30;99.90
23079;DHT22;11707;50.830;4.364;2022-08-21T11:05:21;22.50;99.90
23079;DHT22;11707;50.830;4.364;2022-08-21T11:10:44;22.40;99.90
23079;DHT22;11707;50.830;4.364;2022-08-21T11:13:17;22.40;99.90
23079;DHT22;11707;50.830;4.364;2022-08-21T11:16:07;22.30;99.90
23079;DHT22;11707;50.830;4.364;2022-08-21T11:18:37;22.40;99.90
23079;DHT22;11707;50.830;4.364;2022-08-21T11:21:26;22.40;99.90
23079;DHT22;11707;50.830;4.364;2022-08-21T11:23:55;22.60;99.90
23079;DHT22;11707;50.830;4.364;2022-08-21T11:26:34;22.70;99.90
23079;DHT22;11707;50.830;4.364;2022-08-21T11:29:13;22.70;99.90
23079;DHT22;11707;50.830;4.364;2022-08-21T11:32:01;22.70;99.90
23079;DHT22;11707;50.830;4.364;2022-08-21T11:34:51;22.60;99.90
23079;DHT22;11707;50.830;4.364;2022-08-21T11:40:37;22.40;99.90
23079;DHT22;11707;50.830;4.364;2022-08-21T11:45:48;22.60;99.90
23079;DHT22;11707;50.830;4.364;2022-08-21T11:51:11;23.10;99.90
23079;DHT22;11707;50.830;4.364;2022-08-21T11:56:25;23.50;99.90
23079;DHT22;11707;50.830;4.364;2022-08-21T11:58:56;23.30;99.90
23079;DHT22;11707;50.830;4.364;2022-08-21T12:01:30;23.10;99.90
23079;DHT22;11707;50.830;4.364;2022-08-21T12:06:34;22.90;99.90
23079;DHT22;11707;50.830;4.364;2022-08-21T12:09:08;23.00;99.90
23079;DHT22;11707;50.830;4.364;2022-08-21T12:11:47;22.90;99.90
23079;DHT22;11707;50.830;4.364;2022-08-21T12:14:15;22.80;99.90
23079;DHT22;11707;50.830;4.364;2022-08-21T12:16:47;22.80;99.90
23079;DHT22;11707;50.830;4.364;2022-08-21T12:19:34;22.80;99.90
23079;DHT22;11707;50.830;4.364;2022-08-21T12:24:33;23.00;99.90
23079;DHT22;11707;50.830;4.364;2022-08-21T12:29:46;23.40;99.90
23079;DHT22;11707;50.830;4.364;2022-08-21T12:34:40;23.40;99.90
23079;DHT22;11707;50.830;4.364;2022-08-21T12:37:16;23.40;99.90
23079;DHT22;11707;50.830;4.364;2022-08-21T12:39:46;23.50;99.90
23079;DHT22;11707;50.830;4.364;2022-08-21T12:42:37;23.60;99.90
23079;DHT22;11707;50.830;4.364;2022-08-21T12:45:15;23.80;99.90
23079;DHT22;11707;50.830;4.364;2022-08-21T12:48:09;24.00;99.90
23079;DHT22;11707;50.830;4.364;2022-08-21T12:53:49;23.60;99.90
23079;DHT22;11707;50.830;4.364;2022-08-21T12:56:18;23.60;99.90
23079;DHT22;11707;50.830;4.364;2022-08-21T12:58:51;23.70;99.90
23079;DHT22;11707;50.830;4.364;2022-08-21T13:01:25;23.80;99.90
23079;DHT22;11707;50.830;4.364;2022-08-21T13:03:55;23.90;99.90
23079;DHT22;11707;50.830;4.364;2022-08-21T13:06:23;24.00;99.90
23079;DHT22;11707;50.830;4.364;2022-08-21T13:08:58;24.10;99.90
23079;DHT22;11707;50.830;4.364;2022-08-21T13:11:29;24.00;99.90
23079;DHT22;11707;50.830;4.364;2022-08-21T13:13:54;24.00;99.90
23079;DHT22;11707;50.830;4.364;2022-08-21T13:16:25;24.00;99.90
23079;DHT22;11707;50.830;4.364;2022-08-21T13:19:00;24.10;99.90
23079;DHT22;11707;50.830;4.364;2022-08-21T13:21:38;23.90;99.90
23079;DHT22;11707;50.830;4.364;2022-08-21T13:24:34;23.90;99.90
23079;DHT22;11707;50.830;4.364;2022-08-21T13:27:00;23.80;99.90
23079;DHT22;11707;50.830;4.364;2022-08-21T13:29:31;23.80;99.90
23079;DHT22;11707;50.830;4.364;2022-08-21T13:32:02;23.80;99.90
23079;DHT22;11707;50.830;4.364;2022-08-21T13:34:33;23.80;99.90
23079;DHT22;11707;50.830;4.364;2022-08-21T13:37:02;23.90;99.90
23079;DHT22;11707;50.830;4.364;2022-08-21T13:39:29;23.90;99.90
23079;DHT22;11707;50.830;4.364;2022-08-21T13:41:58;23.80;99.90
23079;DHT22;11707;50.830;4.364;2022-08-21T13:46:57;23.90;99.90
23079;DHT22;11707;50.830;4.364;2022-08-21T13:49:37;23.90;99.90
23079;DHT22;11707;50.830;4.364;2022-08-21T13:52:04;24.00;99.90
23079;DHT22;11707;50.830;4.364;2022-08-21T13:54:43;24.20;99.90
23079;DHT22;11707;50.830;4.364;2022-08-21T13:57:27;24.50;99.90
23079;DHT22;11707;50.830;4.364;2022-08-21T13:59:53;25.00;99.90
23079;DHT22;11707;50.830;4.364;2022-08-21T14:02:39;25.50;99.90
23079;DHT22;11707;50.830;4.364;2022-08-21T14:05:06;25.50;99.90
23079;DHT22;11707;50.830;4.364;2022-08-21T14:07:36;25.30;99.90
23079;DHT22;11707;50.830;4.364;2022-08-21T14:10:07;25.50;99.90
23079;DHT22;11707;50.830;4.364;2022-08-21T14:13:03;25.30;99.90
23079;DHT22;11707;50.830;4.364;2022-08-21T14:15:32;25.00;99.90
23079;DHT22;11707;50.830;4.364;2022-08-21T14:18:16;24.60;99.90
23079;DHT22;11707;50.830;4.364;2022-08-21T14:20:43;24.50;99.90
23079;DHT22;11707;50.830;4.364;2022-08-21T14:23:09;24.30;99.90
23079;DHT22;11707;50.830;4.364;2022-08-21T14:25:41;24.10;99.90
23079;DHT22;11707;50.830;4.364;2022-08-21T14:28:28;23.90;99.90
23079;DHT22;11707;50.830;4.364;2022-08-21T14:30:59;23.80;99.90
23079;DHT22;11707;50.830;4.364;2022-08-21T14:33:35;23.90;99.90
23079;DHT22;11707;50.830;4.364;2022-08-21T14:36:01;23.70;99.90
23079;DHT22;11707;50.830;4.364;2022-08-21T14:38:28;23.60;99.90
23079;DHT22;11707;50.830;4.364;2022-08-21T14:41:00;23.70;99.90
23079;DHT22;11707;50.830;4.364;2022-08-21T14:43:28;24.30;99.90
23079;DHT22;11707;50.830;4.364;2022-08-21T14:45:55;25.90;99.90
23079;DHT22;11707;50.830;4.364;2022-08-21T14:48:21;26.40;99.90
23079;DHT22;11707;50.830;4.364;2022-08-21T14:50:47;26.30;99.90
23079;DHT22;11707;50.830;4.364;2022-08-21T14:53:12;25.80;99.90
23079;DHT22;11707;50.830;4.364;2022-08-21T14:55:39;25.30;99.90
23079;DHT22;11707;50.830;4.364;2022-08-21T14:58:40;24.80;99.90
23079;DHT22;11707;50.830;4.364;2022-08-21T15:01:08;24.50;99.90
23079;DHT22;11707;50.830;4.364;2022-08-21T15:03:35;24.60;99.90
23079;DHT22;11707;50.830;4.364;2022-08-21T15:06:02;24.40;99.90
23079;DHT22;11707;50.830;4.364;2022-08-21T15:08:27;24.30;99.90
23079;DHT22;11707;50.830;4.364;2022-08-21T15:10:53;24.20;99.90
23079;DHT22;11707;50.830;4.364;2022-08-21T15:13:20;24.20;99.90
23079;DHT22;11707;50.830;4.364;2022-08-21T15:15:47;24.40;99.90
23079;DHT22;11707;50.830;4.364;2022-08-21T15:18:14;24.50;99.90
23079;DHT22;11707;50.830;4.364;2022-08-21T15:20:40;24.40;99.90
23079;DHT22;11707;50.830;4.364;2022-08-21T15:23:07;24.60;99.90
23079;DHT22;11707;50.830;4.364;2022-08-21T15:25:34;24.80;99.90
23079;DHT22;11707;50.830;4.364;2022-08-21T15:28:00;24.80;99.90
23079;DHT22;11707;50.830;4.364;2022-08-21T15:30:27;25.00;99.90
23079;DHT22;11707;50.830;4.364;2022-08-21T15:32:54;25.00;99.90
23079;DHT22;11707;50.830;4.364;2022-08-21T15:35:20;24.60;99.90
23079;DHT22;11707;50.830;4.364;2022-08-21T15:37:45;24.60;99.90
23079;DHT22;11707;50.830;4.364;2022-08-21T15:40:11;24.60;99.90
23079;DHT22;11707;50.830;4.364;2022-08-21T15:42:40;24.80;99.90
23079;DHT22;11707;50.830;4.364;2022-08-21T15:45:07;24.90;99.90
23079;DHT22;11707;50.830;4.364;2022-08-21T15:47:35;24.90;99.90
23079;DHT22;11707;50.830;4.364;2022-08-21T15:50:03;24.60;99.90
23079;DHT22;11707;50.830;4.364;2022-08-21T15:52:29;24.20;99.90
23079;DHT22;11707;50.830;4.364;2022-08-21T15:54:55;24.20;99.90
23079;DHT22;11707;50.830;4.364;2022-08-21T15:57:22;24.00;99.90
23079;DHT22;11707;50.830;4.364;2022-08-21T15:59:51;24.00;99.90
23079;DHT22;11707;50.830;4.364;2022-08-21T16:02:24;24.00;99.90
23079;DHT22;11707;50.830;4.364;2022-08-21T16:04:51;23.90;99.90
23079;DHT22;11707;50.830;4.364;2022-08-21T16:07:16;23.90;99.90
23079;DHT22;11707;50.830;4.364;2022-08-21T16:09:43;23.90;99.90
23079;DHT22;11707;50.830;4.364;2022-08-21T16:12:13;24.00;99.90
23079;DHT22;11707;50.830;4.364;2022-08-21T16:14:41;24.10;99.90
23079;DHT22;11707;50.830;4.364;2022-08-21T16:17:07;24.20;99.90
23079;DHT22;11707;50.830;4.364;2022-08-21T16:19:34;24.40;99.90
23079;DHT22;11707;50.830;4.364;2022-08-21T16:22:00;24.50;99.90
23079;DHT22;11707;50.830;4.364;2022-08-21T16:24:26;24.30;99.90
23079;DHT22;11707;50.830;4.364;2022-08-21T16:26:52;24.00;99.90
23079;DHT22;11707;50.830;4.364;2022-08-21T16:29:18;24.00;99.90
23079;DHT22;11707;50.830;4.364;2022-08-21T16:31:44;23.80;99.90
23079;DHT22;11707;50.830;4.364;2022-08-21T16:34:15;23.80;99.90
23079;DHT22;11707;50.830;4.364;2022-08-21T16:36:41;23.90;99.90
23079;DHT22;11707;50.830;4.364;2022-08-21T16:39:07;24.10;99.90
23079;DHT22;11707;50.830;4.364;2022-08-21T16:41:34;24.30;99.90
23079;DHT22;11707;50.830;4.364;2022-08-21T16:44:01;24.30;99.90
23079;DHT22;11707;50.830;4.364;2022-08-21T16:46:30;24.50;99.90
23079;DHT22;11707;50.830;4.364;2022-08-21T16:48:56;24.50;99.90
23079;DHT22;11707;50.830;4.364;2022-08-21T16:51:21;24.30;99.90